VIR47GH EGLL-CYYZ
Flight info
| Callsign | VIR47GH |
|---|---|
| Flight time | N/A |
| Altitude | 36000 |
| Route | CPT L9 BIBPE DCT BUCGO DCT FELCA DCT NICXI DCT BAKUR DCT NEBIN/M085F380 DCT 5330N02000W 5230N03000W 51N040W 4930N05000W DCT IBERG/N0485F380 DCT MIILS/N0495F400 DCT VILRO DCT SAVEX Q806 TUKIR RAGID6 |
| Aircraft | A35K/H-SDE2E3GHIJ3J4J5LM1ORWXY/LB1D1 |
Departure
| Time | 2026-05-07 16:52 |
|---|---|
| Airport | London Heathrow Airport (EGLL) |
Arrival
| Time | N/A |
|---|---|
| Airport | Toronto Pearson International Airport (CYYZ) |
| Time | Latitude | Longitude | Altitude | Speed | Heading |
|---|---|---|---|---|---|
| 2026-05-07 16:07 | 51.46962 | -0.46474 | 92 ft | 0 kts | 56° |
| 2026-05-07 16:39 | 51.46957 | -0.46484 | 92 ft | 4 kts | 56° |
| 2026-05-07 16:40 | 51.46942 | -0.46520 | 92 ft | 4 kts | 56° |
| 2026-05-07 16:40 | 51.46930 | -0.46549 | 94 ft | 4 kts | 70° |
| 2026-05-07 16:40 | 51.46929 | -0.46586 | 91 ft | 4 kts | 124° |
| 2026-05-07 16:40 | 51.46947 | -0.46612 | 90 ft | 4 kts | 146° |
| 2026-05-07 16:41 | 51.46967 | -0.46635 | 94 ft | 2 kts | 146° |
| 2026-05-07 16:41 | 51.46968 | -0.46635 | 94 ft | 0 kts | 146° |
| 2026-05-07 16:44 | 51.46964 | -0.46631 | 92 ft | 2 kts | 146° |
| 2026-05-07 16:44 | 51.46947 | -0.46613 | 97 ft | 4 kts | 146° |
| 2026-05-07 16:44 | 51.46917 | -0.46580 | 92 ft | 6 kts | 146° |
| 2026-05-07 16:44 | 51.46876 | -0.46534 | 96 ft | 8 kts | 146° |
| 2026-05-07 16:45 | 51.46823 | -0.46477 | 92 ft | 10 kts | 146° |
| 2026-05-07 16:45 | 51.46755 | -0.46425 | 95 ft | 12 kts | 167° |
| 2026-05-07 16:45 | 51.46676 | -0.46442 | 92 ft | 12 kts | 223° |
| 2026-05-07 16:45 | 51.46658 | -0.46573 | 95 ft | 13 kts | 268° |
| 2026-05-07 16:46 | 51.46658 | -0.46679 | 96 ft | 15 kts | 270° |
| 2026-05-07 16:46 | 51.46658 | -0.46858 | 97 ft | 17 kts | 269° |
| 2026-05-07 16:46 | 51.46657 | -0.47057 | 95 ft | 19 kts | 269° |
| 2026-05-07 16:46 | 51.46656 | -0.47281 | 95 ft | 21 kts | 270° |
| 2026-05-07 16:47 | 51.46655 | -0.47527 | 96 ft | 23 kts | 270° |
| 2026-05-07 16:47 | 51.46655 | -0.47791 | 92 ft | 23 kts | 269° |
| 2026-05-07 16:47 | 51.46654 | -0.47986 | 95 ft | 12 kts | 269° |
| 2026-05-07 16:47 | 51.46654 | -0.48069 | 92 ft | 0 kts | 269° |
| 2026-05-07 16:48 | 51.46654 | -0.48084 | 94 ft | 3 kts | 269° |
| 2026-05-07 16:49 | 51.46653 | -0.48161 | 92 ft | 10 kts | 270° |
| 2026-05-07 16:49 | 51.46653 | -0.48283 | 94 ft | 12 kts | 270° |
| 2026-05-07 16:49 | 51.46652 | -0.48432 | 92 ft | 15 kts | 269° |
| 2026-05-07 16:49 | 51.46652 | -0.48608 | 95 ft | 17 kts | 270° |
| 2026-05-07 16:50 | 51.46619 | -0.48749 | 92 ft | 14 kts | 215° |
| 2026-05-07 16:50 | 51.46524 | -0.48774 | 93 ft | 15 kts | 165° |
| 2026-05-07 16:50 | 51.46478 | -0.48649 | 95 ft | 14 kts | 94° |
| 2026-05-07 16:50 | 51.46478 | -0.48621 | 96 ft | 0 kts | 90° |
| 2026-05-07 16:52 | 51.46479 | -0.48395 | 93 ft | 52 kts | 89° |
| 2026-05-07 16:52 | 51.46481 | -0.47467 | 93 ft | 115 kts | 89° |
| 2026-05-07 16:52 | 51.46487 | -0.45889 | 151 ft | 161 kts | 89° |
| 2026-05-07 16:52 | 51.46512 | -0.44136 | 861 ft | 157 kts | 91° |
| 2026-05-07 16:53 | 51.46531 | -0.42316 | 1351 ft | 174 kts | 91° |
| 2026-05-07 16:53 | 51.46459 | -0.40241 | 1567 ft | 201 kts | 105° |
| 2026-05-07 16:53 | 51.45697 | -0.38233 | 1765 ft | 227 kts | 140° |
| 2026-05-07 16:53 | 51.44228 | -0.37090 | 2158 ft | 244 kts | 172° |
| 2026-05-07 16:54 | 51.42537 | -0.37329 | 2849 ft | 250 kts | 201° |
| 2026-05-07 16:54 | 51.41045 | -0.38762 | 3629 ft | 253 kts | 218° |
| 2026-05-07 16:54 | 51.39707 | -0.40625 | 4341 ft | 258 kts | 227° |
| 2026-05-07 16:54 | 51.38853 | -0.43143 | 5074 ft | 261 kts | 256° |
| 2026-05-07 16:55 | 51.38783 | -0.46051 | 5813 ft | 265 kts | 277° |
| 2026-05-07 16:55 | 51.39088 | -0.48983 | 6599 ft | 269 kts | 280° |
| 2026-05-07 16:55 | 51.39456 | -0.51936 | 7349 ft | 272 kts | 281° |
| 2026-05-07 16:55 | 51.39916 | -0.54895 | 8004 ft | 276 kts | 288° |
| 2026-05-07 16:56 | 51.40551 | -0.57812 | 8730 ft | 279 kts | 289° |
| 2026-05-07 16:56 | 51.41239 | -0.60744 | 9471 ft | 283 kts | 289° |
| 2026-05-07 16:56 | 51.42726 | -0.66730 | 10552 ft | 303 kts | 290° |
| 2026-05-07 16:57 | 51.43543 | -0.69960 | 10813 ft | 320 kts | 290° |
| 2026-05-07 16:57 | 51.44401 | -0.73354 | 11076 ft | 337 kts | 290° |
| 2026-05-07 16:57 | 51.45300 | -0.76914 | 11351 ft | 351 kts | 290° |
| 2026-05-07 16:57 | 51.46223 | -0.80584 | 11804 ft | 358 kts | 290° |
| 2026-05-07 16:58 | 51.47158 | -0.84310 | 12371 ft | 362 kts | 290° |
| 2026-05-07 16:58 | 51.48089 | -0.88030 | 12933 ft | 366 kts | 290° |
| 2026-05-07 16:58 | 51.49040 | -0.91844 | 13497 ft | 369 kts | 290° |
| 2026-05-07 16:58 | 51.49996 | -0.95686 | 13908 ft | 371 kts | 290° |
| 2026-05-07 16:59 | 51.50954 | -0.99542 | 14015 ft | 372 kts | 290° |
| 2026-05-07 16:59 | 51.51910 | -1.03405 | 14021 ft | 373 kts | 290° |
| 2026-05-07 16:59 | 51.52866 | -1.07272 | 14049 ft | 374 kts | 290° |
| 2026-05-07 16:59 | 51.53829 | -1.11175 | 14456 ft | 376 kts | 290° |
| 2026-05-07 17:00 | 51.54792 | -1.15085 | 15065 ft | 376 kts | 289° |
| 2026-05-07 17:00 | 51.55754 | -1.18998 | 15649 ft | 377 kts | 289° |
| 2026-05-07 17:00 | 51.56718 | -1.22924 | 16189 ft | 379 kts | 289° |
| 2026-05-07 17:00 | 51.57689 | -1.26883 | 16732 ft | 381 kts | 289° |
| 2026-05-07 17:01 | 51.58662 | -1.30864 | 17239 ft | 383 kts | 289° |
| 2026-05-07 17:01 | 51.59637 | -1.34860 | 17775 ft | 385 kts | 289° |
| 2026-05-07 17:01 | 51.60672 | -1.38843 | 18302 ft | 388 kts | 294° |
| 2026-05-07 17:01 | 51.61866 | -1.42750 | 18756 ft | 390 kts | 295° |
| 2026-05-07 17:02 | 51.63118 | -1.46648 | 19197 ft | 393 kts | 296° |
| 2026-05-07 17:02 | 51.64406 | -1.50542 | 19642 ft | 395 kts | 296° |
| 2026-05-07 17:02 | 51.65714 | -1.54446 | 20075 ft | 397 kts | 296° |
| 2026-05-07 17:02 | 51.67028 | -1.58363 | 20542 ft | 399 kts | 296° |
| 2026-05-07 17:03 | 51.68352 | -1.62317 | 21032 ft | 402 kts | 296° |
| 2026-05-07 17:03 | 51.69601 | -1.66356 | 21468 ft | 403 kts | 290° |
| 2026-05-07 17:03 | 51.70426 | -1.70665 | 21919 ft | 403 kts | 280° |
| 2026-05-07 17:03 | 51.70945 | -1.75104 | 22347 ft | 404 kts | 277° |
| 2026-05-07 17:04 | 51.71339 | -1.79606 | 22759 ft | 406 kts | 276° |
| 2026-05-07 17:04 | 51.71666 | -1.84139 | 23196 ft | 409 kts | 275° |
| 2026-05-07 17:04 | 51.71966 | -1.88650 | 23619 ft | 411 kts | 275° |
| 2026-05-07 17:04 | 51.72267 | -1.93256 | 23979 ft | 413 kts | 275° |
| 2026-05-07 17:05 | 51.72570 | -1.97870 | 24343 ft | 415 kts | 275° |
| 2026-05-07 17:05 | 51.72880 | -2.02515 | 24703 ft | 417 kts | 275° |
| 2026-05-07 17:05 | 51.73199 | -2.07180 | 25082 ft | 419 kts | 275° |
| 2026-05-07 17:05 | 51.73522 | -2.11863 | 25456 ft | 421 kts | 275° |
| 2026-05-07 17:06 | 51.73848 | -2.16567 | 25835 ft | 423 kts | 275° |
| 2026-05-07 17:06 | 51.74175 | -2.21298 | 26228 ft | 425 kts | 275° |
| 2026-05-07 17:06 | 51.74502 | -2.26053 | 26616 ft | 427 kts | 275° |
| 2026-05-07 17:06 | 51.74828 | -2.30828 | 27013 ft | 429 kts | 275° |
| 2026-05-07 17:07 | 51.75154 | -2.35624 | 27415 ft | 431 kts | 275° |
| 2026-05-07 17:07 | 51.75480 | -2.40454 | 27816 ft | 433 kts | 275° |
| 2026-05-07 17:07 | 51.75804 | -2.45297 | 28198 ft | 436 kts | 275° |
| 2026-05-07 17:07 | 51.76128 | -2.50182 | 28508 ft | 440 kts | 274° |
| 2026-05-07 17:08 | 51.76453 | -2.55109 | 28888 ft | 442 kts | 274° |
| 2026-05-07 17:08 | 51.76775 | -2.60009 | 29279 ft | 444 kts | 274° |
| 2026-05-07 17:08 | 51.77101 | -2.64971 | 29660 ft | 446 kts | 274° |
| 2026-05-07 17:08 | 51.77426 | -2.69962 | 30033 ft | 448 kts | 274° |
| 2026-05-07 17:09 | 51.77748 | -2.74976 | 30356 ft | 450 kts | 274° |
| 2026-05-07 17:09 | 51.78068 | -2.80018 | 30664 ft | 453 kts | 274° |
| 2026-05-07 17:09 | 51.78389 | -2.85090 | 30987 ft | 455 kts | 274° |
| 2026-05-07 17:09 | 51.78709 | -2.90187 | 31272 ft | 457 kts | 274° |
| 2026-05-07 17:10 | 51.79029 | -2.95309 | 31546 ft | 460 kts | 274° |
| 2026-05-07 17:10 | 51.79349 | -3.00461 | 31808 ft | 462 kts | 274° |
| 2026-05-07 17:10 | 51.79668 | -3.05641 | 32090 ft | 464 kts | 274° |
| 2026-05-07 17:10 | 51.79986 | -3.10829 | 32354 ft | 465 kts | 274° |
| 2026-05-07 17:11 | 51.80303 | -3.16036 | 32654 ft | 466 kts | 274° |
| 2026-05-07 17:11 | 51.80617 | -3.21247 | 33063 ft | 464 kts | 274° |
| 2026-05-07 17:11 | 51.80924 | -3.26363 | 33449 ft | 463 kts | 274° |
| 2026-05-07 17:11 | 51.81232 | -3.31545 | 33805 ft | 462 kts | 274° |
| 2026-05-07 17:12 | 51.81537 | -3.36709 | 34152 ft | 462 kts | 274° |
| 2026-05-07 17:12 | 51.81840 | -3.41880 | 34424 ft | 462 kts | 273° |
| 2026-05-07 17:12 | 51.82139 | -3.47045 | 34673 ft | 462 kts | 273° |
| 2026-05-07 17:12 | 51.82465 | -3.52221 | 34907 ft | 463 kts | 276° |
| 2026-05-07 17:13 | 51.83017 | -3.57359 | 35137 ft | 465 kts | 278° |
| 2026-05-07 17:13 | 51.83640 | -3.62492 | 35371 ft | 466 kts | 279° |
| 2026-05-07 17:13 | 51.84292 | -3.67624 | 35590 ft | 466 kts | 279° |
| 2026-05-07 17:13 | 51.84959 | -3.72764 | 35810 ft | 467 kts | 279° |
| 2026-05-07 17:14 | 51.85629 | -3.77911 | 35981 ft | 469 kts | 279° |
| 2026-05-07 17:14 | 51.86302 | -3.83093 | 36010 ft | 474 kts | 279° |
| 2026-05-07 17:14 | 51.87646 | -3.93561 | 36009 ft | 475 kts | 279° |
| 2026-05-07 17:15 | 51.88974 | -4.04027 | 36008 ft | 475 kts | 279° |
| 2026-05-07 17:15 | 51.90291 | -4.14505 | 36002 ft | 475 kts | 279° |
| 2026-05-07 17:16 | 51.91597 | -4.24982 | 36010 ft | 475 kts | 279° |
| 2026-05-07 17:16 | 51.92895 | -4.35478 | 36006 ft | 475 kts | 279° |
| 2026-05-07 17:17 | 51.94175 | -4.45910 | 36000 ft | 475 kts | 279° |
| 2026-05-07 17:17 | 51.95454 | -4.56409 | 35995 ft | 475 kts | 279° |
| 2026-05-07 17:18 | 51.96724 | -4.66923 | 35998 ft | 475 kts | 278° |
| 2026-05-07 17:18 | 51.97986 | -4.77450 | 35998 ft | 475 kts | 278° |
| 2026-05-07 17:19 | 51.99239 | -4.87988 | 35999 ft | 475 kts | 278° |
| 2026-05-07 17:19 | 52.00487 | -4.98528 | 35997 ft | 476 kts | 278° |
| 2026-05-07 17:20 | 52.02609 | -5.08645 | 35999 ft | 481 kts | 295° |
| 2026-05-07 17:20 | 52.05135 | -5.16043 | 35998 ft | 483 kts | 297° |
| 2026-05-07 17:21 | 52.06901 | -5.20870 | 35998 ft | 484 kts | 298° |
| 2026-05-07 17:21 | 52.10386 | -5.30235 | 35996 ft | 484 kts | 298° |
| 2026-05-07 17:22 | 52.13804 | -5.39493 | 35996 ft | 483 kts | 298° |
| 2026-05-07 17:22 | 52.16482 | -5.46817 | 36003 ft | 483 kts | 298° |
| 2026-05-07 17:23 | 52.19905 | -5.56234 | 35993 ft | 483 kts | 297° |
| 2026-05-07 17:23 | 52.23260 | -5.65717 | 35993 ft | 481 kts | 293° |
| 2026-05-07 17:24 | 52.25497 | -5.75462 | 35987 ft | 477 kts | 284° |
| 2026-05-07 17:24 | 52.27394 | -5.85844 | 35988 ft | 477 kts | 283° |
| 2026-05-07 17:25 | 52.29210 | -5.96272 | 35987 ft | 477 kts | 283° |
| 2026-05-07 17:25 | 52.31021 | -6.06692 | 35985 ft | 477 kts | 283° |
| 2026-05-07 17:26 | 52.32841 | -6.17138 | 35979 ft | 477 kts | 283° |
| 2026-05-07 17:26 | 52.34658 | -6.27592 | 35980 ft | 477 kts | 283° |
| 2026-05-07 17:27 | 52.36463 | -6.38037 | 35978 ft | 477 kts | 283° |
| 2026-05-07 17:27 | 52.38257 | -6.48487 | 35978 ft | 477 kts | 283° |
| 2026-05-07 17:28 | 52.40032 | -6.58885 | 35969 ft | 477 kts | 283° |
| 2026-05-07 17:28 | 52.41806 | -6.69347 | 35971 ft | 477 kts | 283° |
| 2026-05-07 17:29 | 52.43573 | -6.79829 | 35971 ft | 477 kts | 283° |
| 2026-05-07 17:29 | 52.45330 | -6.90309 | 35973 ft | 477 kts | 283° |
| 2026-05-07 17:30 | 52.47076 | -7.00795 | 35974 ft | 477 kts | 283° |
| 2026-05-07 17:30 | 52.48811 | -7.11272 | 35968 ft | 476 kts | 283° |
| 2026-05-07 17:31 | 52.50536 | -7.21754 | 35959 ft | 476 kts | 283° |
| 2026-05-07 17:31 | 52.52252 | -7.32250 | 35955 ft | 476 kts | 282° |
| 2026-05-07 17:32 | 52.53960 | -7.42759 | 35951 ft | 475 kts | 282° |
| 2026-05-07 17:32 | 52.55368 | -7.51468 | 35952 ft | 474 kts | 283° |
| 2026-05-07 17:33 | 52.57052 | -7.61949 | 35944 ft | 473 kts | 283° |
| 2026-05-07 17:33 | 52.58992 | -7.74104 | 35942 ft | 472 kts | 282° |
| 2026-05-07 17:34 | 52.60651 | -7.84574 | 35936 ft | 472 kts | 282° |
| 2026-05-07 17:34 | 52.62031 | -7.93334 | 35935 ft | 472 kts | 282° |
| 2026-05-07 17:35 | 52.63662 | -8.03739 | 35946 ft | 472 kts | 282° |
| 2026-05-07 17:35 | 52.65293 | -8.14222 | 35938 ft | 472 kts | 282° |
| 2026-05-07 17:36 | 52.66916 | -8.24715 | 35940 ft | 472 kts | 282° |
| 2026-05-07 17:36 | 52.68530 | -8.35212 | 35937 ft | 472 kts | 282° |
| 2026-05-07 17:37 | 52.70133 | -8.45712 | 35941 ft | 472 kts | 282° |
| 2026-05-07 17:37 | 52.71725 | -8.56206 | 35954 ft | 471 kts | 282° |
| 2026-05-07 17:38 | 52.73294 | -8.66614 | 35965 ft | 470 kts | 282° |
| 2026-05-07 17:38 | 52.74864 | -8.77105 | 35934 ft | 470 kts | 282° |
| 2026-05-07 17:39 | 52.76423 | -8.87588 | 35926 ft | 470 kts | 282° |
| 2026-05-07 17:39 | 52.77973 | -8.98081 | 35935 ft | 470 kts | 282° |
| 2026-05-07 17:40 | 52.79516 | -9.08594 | 35936 ft | 470 kts | 282° |
| 2026-05-07 17:40 | 52.81046 | -9.19088 | 35934 ft | 469 kts | 281° |
| 2026-05-07 17:41 | 52.82557 | -9.29517 | 35933 ft | 469 kts | 281° |
| 2026-05-07 17:41 | 52.84006 | -9.39599 | 35939 ft | 469 kts | 281° |
| 2026-05-07 17:42 | 52.85506 | -9.50104 | 35941 ft | 469 kts | 281° |
| 2026-05-07 17:42 | 52.86752 | -9.58876 | 35957 ft | 469 kts | 281° |
| 2026-05-07 17:43 | 52.88144 | -9.68735 | 35940 ft | 469 kts | 280° |
| 2026-05-07 17:43 | 52.88796 | -9.73379 | 35935 ft | 469 kts | 280° |
| 2026-05-07 17:44 | 52.89836 | -9.80819 | 35941 ft | 469 kts | 280° |
| 2026-05-07 17:44 | 52.90583 | -9.86179 | 35941 ft | 469 kts | 280° |
| 2026-05-07 17:45 | 52.91585 | -9.93406 | 35944 ft | 469 kts | 280° |
| 2026-05-07 17:45 | 52.92694 | -10.01442 | 35944 ft | 468 kts | 280° |
| 2026-05-07 17:46 | 52.93844 | -10.09828 | 35937 ft | 469 kts | 280° |
| 2026-05-07 17:46 | 52.94952 | -10.17944 | 35947 ft | 469 kts | 280° |
| 2026-05-07 17:47 | 52.96258 | -10.27575 | 35939 ft | 469 kts | 280° |
| 2026-05-07 17:47 | 52.97605 | -10.37577 | 35938 ft | 469 kts | 280° |
| 2026-05-07 17:48 | 52.98988 | -10.47910 | 35938 ft | 469 kts | 279° |
| 2026-05-07 17:48 | 53.00349 | -10.58161 | 35939 ft | 468 kts | 279° |
| 2026-05-07 17:49 | 53.01744 | -10.68739 | 35942 ft | 468 kts | 279° |
| 2026-05-07 17:49 | 53.03104 | -10.79129 | 35941 ft | 468 kts | 279° |
| 2026-05-07 17:50 | 53.04443 | -10.89433 | 35943 ft | 468 kts | 279° |
| 2026-05-07 17:50 | 53.05794 | -10.99901 | 35944 ft | 468 kts | 279° |
| 2026-05-07 17:51 | 53.07121 | -11.10265 | 35944 ft | 468 kts | 279° |
| 2026-05-07 17:51 | 53.08467 | -11.20854 | 35945 ft | 468 kts | 279° |
| 2026-05-07 17:52 | 53.09792 | -11.31362 | 35949 ft | 468 kts | 279° |
| 2026-05-07 17:52 | 53.11091 | -11.41729 | 35943 ft | 466 kts | 279° |
| 2026-05-07 17:53 | 53.12397 | -11.52243 | 35946 ft | 466 kts | 279° |
| 2026-05-07 17:53 | 53.13699 | -11.62812 | 35948 ft | 466 kts | 279° |
| 2026-05-07 17:54 | 53.14994 | -11.73398 | 35952 ft | 466 kts | 278° |
| 2026-05-07 17:54 | 53.16277 | -11.83971 | 35951 ft | 466 kts | 278° |
| 2026-05-07 17:55 | 53.17548 | -11.94521 | 35952 ft | 464 kts | 278° |
| 2026-05-07 17:55 | 53.18807 | -12.05065 | 35953 ft | 464 kts | 278° |
| 2026-05-07 17:56 | 53.20050 | -12.15560 | 35953 ft | 464 kts | 278° |
| 2026-05-07 17:56 | 53.21279 | -12.26012 | 35954 ft | 464 kts | 278° |
| 2026-05-07 17:57 | 53.22308 | -12.34833 | 35959 ft | 463 kts | 278° |
| 2026-05-07 17:57 | 53.23729 | -12.47108 | 35960 ft | 462 kts | 278° |
| 2026-05-07 17:58 | 53.24927 | -12.57546 | 35960 ft | 462 kts | 278° |
| 2026-05-07 17:58 | 53.26127 | -12.68097 | 35962 ft | 462 kts | 278° |
| 2026-05-07 17:59 | 53.27313 | -12.78615 | 35963 ft | 462 kts | 278° |
| 2026-05-07 17:59 | 53.28494 | -12.89172 | 35967 ft | 462 kts | 278° |
| 2026-05-07 18:00 | 53.29664 | -12.99717 | 35972 ft | 461 kts | 277° |
| 2026-05-07 18:00 | 53.30825 | -13.10266 | 35967 ft | 461 kts | 277° |
| 2026-05-07 18:01 | 53.31975 | -13.20811 | 35965 ft | 461 kts | 277° |
| 2026-05-07 18:01 | 53.33114 | -13.31347 | 36304 ft | 458 kts | 277° |
| 2026-05-07 18:02 | 53.34218 | -13.41638 | 36816 ft | 457 kts | 277° |
| 2026-05-07 18:02 | 53.34775 | -13.46879 | 37015 ft | 457 kts | 277° |
| 2026-05-07 18:02 | 53.35331 | -13.52123 | 37201 ft | 458 kts | 277° |
| 2026-05-07 18:03 | 53.35885 | -13.57376 | 37385 ft | 459 kts | 277° |
| 2026-05-07 18:03 | 53.36439 | -13.62647 | 37552 ft | 459 kts | 278° |
| 2026-05-07 18:03 | 53.36990 | -13.67915 | 37730 ft | 460 kts | 278° |
| 2026-05-07 18:03 | 53.37540 | -13.73202 | 37898 ft | 460 kts | 278° |
| 2026-05-07 18:04 | 53.38089 | -13.78494 | 37980 ft | 463 kts | 278° |
| 2026-05-07 18:04 | 53.39192 | -13.89216 | 37979 ft | 468 kts | 277° |
| 2026-05-07 18:05 | 53.40290 | -13.99964 | 37983 ft | 467 kts | 277° |
| 2026-05-07 18:05 | 53.41369 | -14.10631 | 38005 ft | 467 kts | 277° |
| 2026-05-07 18:06 | 53.42391 | -14.20834 | 37988 ft | 467 kts | 277° |
| 2026-05-07 18:06 | 53.43458 | -14.31585 | 37981 ft | 467 kts | 277° |
| 2026-05-07 18:07 | 53.44516 | -14.42353 | 37986 ft | 467 kts | 277° |
| 2026-05-07 18:07 | 53.45565 | -14.53126 | 37985 ft | 467 kts | 277° |
| 2026-05-07 18:08 | 53.46598 | -14.63842 | 37988 ft | 467 kts | 277° |
| 2026-05-07 18:08 | 53.47626 | -14.74606 | 37992 ft | 467 kts | 277° |
| 2026-05-07 18:09 | 53.48644 | -14.85378 | 37985 ft | 467 kts | 277° |
| 2026-05-07 18:09 | 53.49651 | -14.96149 | 37983 ft | 467 kts | 277° |
| 2026-05-07 18:10 | 53.50151 | -15.06996 | 38005 ft | 466 kts | 271° |
| 2026-05-07 18:10 | 53.50393 | -15.17869 | 38001 ft | 466 kts | 271° |
| 2026-05-07 18:11 | 53.50586 | -15.28759 | 37997 ft | 467 kts | 270° |
| 2026-05-07 18:11 | 53.50772 | -15.39666 | 38007 ft | 467 kts | 270° |
| 2026-05-07 18:12 | 53.50956 | -15.50590 | 38006 ft | 468 kts | 270° |
| 2026-05-07 18:12 | 53.51134 | -15.61541 | 38001 ft | 469 kts | 270° |
| 2026-05-07 18:13 | 53.51301 | -15.72423 | 38003 ft | 469 kts | 270° |
| 2026-05-07 18:13 | 53.51458 | -15.83386 | 38008 ft | 469 kts | 270° |
| 2026-05-07 18:14 | 53.51606 | -15.94345 | 38006 ft | 469 kts | 270° |
| 2026-05-07 18:14 | 53.51743 | -16.05312 | 38005 ft | 469 kts | 270° |
| 2026-05-07 18:15 | 53.51871 | -16.16280 | 38015 ft | 469 kts | 270° |
| 2026-05-07 18:15 | 53.51988 | -16.27246 | 38015 ft | 469 kts | 270° |
| 2026-05-07 18:16 | 53.52095 | -16.38215 | 38014 ft | 469 kts | 270° |
| 2026-05-07 18:16 | 53.52192 | -16.49100 | 38022 ft | 469 kts | 270° |
| 2026-05-07 18:17 | 53.52279 | -16.60062 | 38016 ft | 469 kts | 270° |
| 2026-05-07 18:17 | 53.52356 | -16.71029 | 38014 ft | 469 kts | 270° |
| 2026-05-07 18:18 | 53.52423 | -16.81987 | 38025 ft | 469 kts | 270° |
| 2026-05-07 18:18 | 53.52481 | -16.92960 | 38027 ft | 469 kts | 270° |
| 2026-05-07 18:19 | 53.52528 | -17.03943 | 38024 ft | 469 kts | 270° |
| 2026-05-07 18:19 | 53.52565 | -17.14916 | 38028 ft | 469 kts | 270° |
| 2026-05-07 18:20 | 53.52592 | -17.25834 | 38032 ft | 470 kts | 270° |
| 2026-05-07 18:20 | 53.52609 | -17.36826 | 38032 ft | 470 kts | 270° |
| 2026-05-07 18:21 | 53.52616 | -17.47824 | 38033 ft | 471 kts | 270° |
| 2026-05-07 18:21 | 53.52613 | -17.58833 | 38035 ft | 471 kts | 270° |
| 2026-05-07 18:22 | 53.52603 | -17.67974 | 38034 ft | 471 kts | 270° |
| 2026-05-07 18:22 | 53.52581 | -17.78984 | 38041 ft | 471 kts | 269° |
| 2026-05-07 18:23 | 53.52549 | -17.89999 | 38046 ft | 471 kts | 269° |
| 2026-05-07 18:23 | 53.52507 | -18.01005 | 38045 ft | 471 kts | 269° |
| 2026-05-07 18:24 | 53.52455 | -18.12015 | 38045 ft | 471 kts | 269° |
| 2026-05-07 18:24 | 53.52393 | -18.23027 | 38045 ft | 471 kts | 269° |
| 2026-05-07 18:25 | 53.52321 | -18.34030 | 38046 ft | 471 kts | 269° |
| 2026-05-07 18:25 | 53.52239 | -18.45050 | 38048 ft | 471 kts | 269° |
| 2026-05-07 18:26 | 53.52146 | -18.56064 | 38054 ft | 472 kts | 269° |
| 2026-05-07 18:26 | 53.52044 | -18.67033 | 38056 ft | 472 kts | 269° |
| 2026-05-07 18:27 | 53.51932 | -18.78055 | 38059 ft | 472 kts | 269° |
| 2026-05-07 18:27 | 53.51809 | -18.89085 | 38060 ft | 472 kts | 269° |
| 2026-05-07 18:28 | 53.51675 | -19.00129 | 38057 ft | 473 kts | 269° |
| 2026-05-07 18:28 | 53.51532 | -19.11169 | 38062 ft | 473 kts | 269° |
| 2026-05-07 18:29 | 53.51378 | -19.22203 | 38068 ft | 473 kts | 269° |
| 2026-05-07 18:29 | 53.51215 | -19.33244 | 38068 ft | 473 kts | 269° |
| 2026-05-07 18:30 | 53.51041 | -19.44275 | 38071 ft | 473 kts | 269° |
| 2026-05-07 18:30 | 53.50856 | -19.55314 | 38073 ft | 473 kts | 269° |
| 2026-05-07 18:31 | 53.50662 | -19.66359 | 38079 ft | 473 kts | 269° |
| 2026-05-07 18:31 | 53.50458 | -19.77408 | 38079 ft | 473 kts | 269° |
| 2026-05-07 18:32 | 53.50243 | -19.88459 | 38088 ft | 473 kts | 269° |
| 2026-05-07 18:32 | 53.50018 | -19.99501 | 38085 ft | 473 kts | 269° |
| 2026-05-07 18:33 | 53.49580 | -20.10465 | 38080 ft | 474 kts | 265° |
| 2026-05-07 18:33 | 53.48862 | -20.21471 | 38081 ft | 474 kts | 265° |
| 2026-05-07 18:34 | 53.48146 | -20.32469 | 38089 ft | 474 kts | 265° |
| 2026-05-07 18:34 | 53.47469 | -20.43484 | 38092 ft | 474 kts | 265° |
| 2026-05-07 18:35 | 53.46803 | -20.54492 | 38093 ft | 474 kts | 265° |
| 2026-05-07 18:35 | 53.46129 | -20.65513 | 38092 ft | 474 kts | 265° |
| 2026-05-07 18:36 | 53.45444 | -20.76520 | 38095 ft | 475 kts | 265° |
| 2026-05-07 18:36 | 53.44750 | -20.87474 | 38101 ft | 475 kts | 265° |
| 2026-05-07 18:37 | 53.44042 | -20.98492 | 38101 ft | 475 kts | 265° |
| 2026-05-07 18:37 | 53.43322 | -21.09512 | 38091 ft | 475 kts | 265° |
| 2026-05-07 18:38 | 53.42593 | -21.20534 | 38101 ft | 476 kts | 265° |
| 2026-05-07 18:38 | 53.41853 | -21.31553 | 38100 ft | 476 kts | 265° |
| 2026-05-07 18:39 | 53.41102 | -21.42585 | 38106 ft | 476 kts | 265° |
| 2026-05-07 18:39 | 53.40343 | -21.53594 | 38113 ft | 476 kts | 265° |
| 2026-05-07 18:40 | 53.39571 | -21.64619 | 38108 ft | 476 kts | 265° |
| 2026-05-07 18:40 | 53.38796 | -21.75550 | 38120 ft | 476 kts | 265° |
| 2026-05-07 18:41 | 53.38005 | -21.86564 | 38119 ft | 476 kts | 265° |
| 2026-05-07 18:41 | 53.37204 | -21.97573 | 38123 ft | 476 kts | 265° |
| 2026-05-07 18:42 | 53.36393 | -22.08574 | 38120 ft | 476 kts | 265° |
| 2026-05-07 18:42 | 53.35571 | -22.19573 | 38112 ft | 476 kts | 265° |
| 2026-05-07 18:43 | 53.34739 | -22.30574 | 38122 ft | 476 kts | 265° |
| 2026-05-07 18:43 | 53.33898 | -22.41556 | 38124 ft | 476 kts | 265° |
| 2026-05-07 18:44 | 53.33052 | -22.52468 | 38131 ft | 476 kts | 265° |
| 2026-05-07 18:44 | 53.32190 | -22.63457 | 38134 ft | 476 kts | 264° |
| 2026-05-07 18:45 | 53.31318 | -22.74424 | 38135 ft | 476 kts | 265° |
| 2026-05-07 18:45 | 53.30437 | -22.85385 | 38135 ft | 476 kts | 265° |
| 2026-05-07 18:46 | 53.29546 | -22.96349 | 38138 ft | 476 kts | 265° |
| 2026-05-07 18:46 | 53.28643 | -23.07325 | 38136 ft | 476 kts | 264° |
| 2026-05-07 18:47 | 53.27729 | -23.18294 | 38124 ft | 476 kts | 265° |
| 2026-05-07 18:47 | 53.26806 | -23.29268 | 38138 ft | 477 kts | 265° |
| 2026-05-07 18:48 | 53.25872 | -23.40238 | 38146 ft | 477 kts | 264° |
| 2026-05-07 18:48 | 53.24927 | -23.51213 | 38146 ft | 477 kts | 264° |
| 2026-05-07 18:49 | 53.23973 | -23.62175 | 38151 ft | 477 kts | 264° |
| 2026-05-07 18:49 | 53.23013 | -23.73077 | 38151 ft | 477 kts | 265° |
| 2026-05-07 18:50 | 53.22036 | -23.84053 | 38153 ft | 478 kts | 264° |
| 2026-05-07 18:50 | 53.21051 | -23.95012 | 38151 ft | 478 kts | 264° |
| 2026-05-07 18:51 | 53.20055 | -24.05971 | 38156 ft | 478 kts | 264° |
| 2026-05-07 18:51 | 53.19049 | -24.16925 | 38153 ft | 478 kts | 264° |
| 2026-05-07 18:52 | 53.18031 | -24.27885 | 38161 ft | 478 kts | 264° |
| 2026-05-07 18:52 | 53.17006 | -24.38825 | 38162 ft | 478 kts | 264° |
| 2026-05-07 18:53 | 53.15969 | -24.49769 | 38165 ft | 478 kts | 264° |
| 2026-05-07 18:53 | 53.14929 | -24.60644 | 38167 ft | 478 kts | 264° |
| 2026-05-07 18:54 | 53.13872 | -24.71576 | 38143 ft | 478 kts | 264° |
| 2026-05-07 18:54 | 53.12804 | -24.82512 | 38174 ft | 478 kts | 264° |
| 2026-05-07 18:55 | 53.11729 | -24.93423 | 38181 ft | 478 kts | 264° |
| 2026-05-07 18:55 | 53.10643 | -25.04333 | 38179 ft | 478 kts | 264° |
| 2026-05-07 18:56 | 53.09547 | -25.15239 | 38187 ft | 478 kts | 264° |
| 2026-05-07 18:56 | 53.08441 | -25.26142 | 38179 ft | 478 kts | 264° |
| 2026-05-07 18:57 | 53.07324 | -25.37046 | 38185 ft | 478 kts | 264° |
| 2026-05-07 18:57 | 53.06198 | -25.47935 | 38185 ft | 478 kts | 264° |
| 2026-05-07 18:58 | 53.05062 | -25.58822 | 38190 ft | 478 kts | 264° |
| 2026-05-07 18:58 | 53.03915 | -25.69706 | 38186 ft | 478 kts | 264° |
| 2026-05-07 18:59 | 53.02758 | -25.80587 | 38185 ft | 478 kts | 264° |
| 2026-05-07 18:59 | 53.01598 | -25.91399 | 38190 ft | 478 kts | 264° |
| 2026-05-07 19:00 | 53.00422 | -26.02265 | 38196 ft | 478 kts | 264° |
| 2026-05-07 19:00 | 52.99235 | -26.13135 | 38200 ft | 478 kts | 264° |
| 2026-05-07 19:01 | 52.98039 | -26.23992 | 38195 ft | 478 kts | 264° |
| 2026-05-07 19:01 | 52.96832 | -26.34845 | 38203 ft | 478 kts | 264° |
| 2026-05-07 19:02 | 52.95616 | -26.45694 | 38203 ft | 478 kts | 264° |
| 2026-05-07 19:02 | 52.94391 | -26.56526 | 38203 ft | 478 kts | 264° |
| 2026-05-07 19:03 | 52.93163 | -26.67288 | 38205 ft | 478 kts | 264° |
| 2026-05-07 19:03 | 52.91909 | -26.78192 | 38205 ft | 478 kts | 264° |
| 2026-05-07 19:04 | 52.90661 | -26.88949 | 38213 ft | 478 kts | 264° |
| 2026-05-07 19:04 | 52.89396 | -26.99759 | 38213 ft | 478 kts | 264° |
| 2026-05-07 19:05 | 52.88120 | -27.10572 | 38217 ft | 478 kts | 263° |
| 2026-05-07 19:05 | 52.86836 | -27.21369 | 38216 ft | 478 kts | 263° |
| 2026-05-07 19:06 | 52.85539 | -27.32182 | 38217 ft | 478 kts | 264° |
| 2026-05-07 19:06 | 52.83579 | -27.48355 | 38225 ft | 478 kts | 264° |
| 2026-05-07 19:07 | 52.82260 | -27.59136 | 38224 ft | 478 kts | 264° |
| 2026-05-07 19:07 | 52.80932 | -27.69904 | 38229 ft | 478 kts | 263° |
| 2026-05-07 19:08 | 52.79601 | -27.80604 | 38233 ft | 478 kts | 264° |
| 2026-05-07 19:08 | 52.78254 | -27.91347 | 38232 ft | 477 kts | 264° |
| 2026-05-07 19:09 | 52.76898 | -28.02085 | 38237 ft | 477 kts | 264° |
| 2026-05-07 19:09 | 52.75765 | -28.10994 | 38235 ft | 477 kts | 264° |
| 2026-05-07 19:10 | 52.74390 | -28.21727 | 38242 ft | 478 kts | 263° |
| 2026-05-07 19:10 | 52.73005 | -28.32456 | 38240 ft | 478 kts | 264° |
| 2026-05-07 19:11 | 52.71610 | -28.43180 | 38235 ft | 478 kts | 264° |
| 2026-05-07 19:11 | 52.70206 | -28.53898 | 38245 ft | 478 kts | 264° |
| 2026-05-07 19:12 | 52.68792 | -28.64608 | 38248 ft | 478 kts | 264° |
| 2026-05-07 19:12 | 52.67367 | -28.75314 | 38207 ft | 478 kts | 264° |
| 2026-05-07 19:13 | 52.65943 | -28.85941 | 38251 ft | 478 kts | 264° |
| 2026-05-07 19:13 | 52.64500 | -28.96634 | 38245 ft | 478 kts | 264° |
| 2026-05-07 19:14 | 52.63049 | -29.07311 | 38264 ft | 478 kts | 264° |
| 2026-05-07 19:14 | 52.61587 | -29.17984 | 38244 ft | 478 kts | 264° |
| 2026-05-07 19:15 | 52.60114 | -29.28658 | 38251 ft | 477 kts | 264° |
| 2026-05-07 19:15 | 52.58643 | -29.39233 | 38263 ft | 472 kts | 264° |
| 2026-05-07 19:16 | 52.57175 | -29.49726 | 38268 ft | 470 kts | 264° |
| 2026-05-07 19:16 | 52.55703 | -29.60194 | 38268 ft | 470 kts | 264° |
| 2026-05-07 19:17 | 52.54228 | -29.70599 | 38265 ft | 470 kts | 264° |
| 2026-05-07 19:17 | 52.52735 | -29.81046 | 38265 ft | 468 kts | 264° |
| 2026-05-07 19:18 | 52.51237 | -29.91437 | 38271 ft | 467 kts | 264° |
| 2026-05-07 19:18 | 52.49739 | -30.01809 | 38270 ft | 466 kts | 264° |
| 2026-05-07 19:19 | 52.48560 | -30.12197 | 38271 ft | 462 kts | 268° |
| 2026-05-07 19:19 | 52.47566 | -30.22613 | 38279 ft | 462 kts | 268° |
| 2026-05-07 19:20 | 52.46526 | -30.33027 | 38283 ft | 463 kts | 268° |
| 2026-05-07 19:20 | 52.45426 | -30.43450 | 38285 ft | 464 kts | 267° |
| 2026-05-07 19:21 | 52.44304 | -30.53812 | 38284 ft | 465 kts | 267° |
| 2026-05-07 19:21 | 52.43165 | -30.64235 | 38287 ft | 465 kts | 267° |
| 2026-05-07 19:22 | 52.42019 | -30.74662 | 38233 ft | 464 kts | 267° |
| 2026-05-07 19:22 | 52.40866 | -30.85094 | 38282 ft | 467 kts | 267° |
| 2026-05-07 19:23 | 52.39697 | -30.95571 | 38292 ft | 468 kts | 267° |
| 2026-05-07 19:23 | 52.38515 | -31.06055 | 38301 ft | 468 kts | 267° |
| 2026-05-07 19:24 | 52.37324 | -31.16547 | 38297 ft | 469 kts | 267° |
| 2026-05-07 19:24 | 52.36121 | -31.27050 | 38253 ft | 469 kts | 267° |
| 2026-05-07 19:25 | 52.34909 | -31.37556 | 38296 ft | 470 kts | 267° |
| 2026-05-07 19:25 | 52.33692 | -31.48007 | 38294 ft | 471 kts | 267° |
| 2026-05-07 19:26 | 52.32458 | -31.58526 | 38295 ft | 471 kts | 267° |
| 2026-05-07 19:26 | 52.31214 | -31.69037 | 38298 ft | 471 kts | 267° |
| 2026-05-07 19:27 | 52.29963 | -31.79522 | 38298 ft | 471 kts | 267° |
| 2026-05-07 19:27 | 52.28837 | -31.88897 | 38297 ft | 471 kts | 267° |
| 2026-05-07 19:28 | 52.27566 | -31.99399 | 38298 ft | 471 kts | 267° |
| 2026-05-07 19:28 | 52.26284 | -32.09900 | 38306 ft | 471 kts | 266° |
| 2026-05-07 19:29 | 52.24994 | -32.20389 | 38306 ft | 471 kts | 266° |
| 2026-05-07 19:29 | 52.23694 | -32.30875 | 38307 ft | 470 kts | 267° |
| 2026-05-07 19:30 | 52.22391 | -32.41288 | 38313 ft | 468 kts | 267° |
| 2026-05-07 19:30 | 52.21085 | -32.51676 | 38312 ft | 467 kts | 267° |
| 2026-05-07 19:31 | 52.19781 | -32.61981 | 38302 ft | 468 kts | 267° |
| 2026-05-07 19:31 | 52.18457 | -32.72335 | 38312 ft | 465 kts | 267° |
| 2026-05-07 19:32 | 52.17130 | -32.82630 | 38309 ft | 461 kts | 267° |
| 2026-05-07 19:32 | 52.15807 | -32.92817 | 38317 ft | 458 kts | 267° |
| 2026-05-07 19:33 | 52.14485 | -33.02967 | 38312 ft | 458 kts | 267° |
| 2026-05-07 19:33 | 52.13153 | -33.13117 | 38310 ft | 458 kts | 267° |
| 2026-05-07 19:34 | 52.11810 | -33.23265 | 38316 ft | 458 kts | 267° |
| 2026-05-07 19:34 | 52.10457 | -33.33396 | 38311 ft | 456 kts | 266° |
| 2026-05-07 19:35 | 52.09105 | -33.43449 | 38314 ft | 454 kts | 266° |
| 2026-05-07 19:35 | 52.07756 | -33.53427 | 38314 ft | 454 kts | 266° |
| 2026-05-07 19:36 | 52.06391 | -33.63468 | 38314 ft | 454 kts | 266° |
| 2026-05-07 19:36 | 52.05017 | -33.73491 | 38314 ft | 455 kts | 266° |
| 2026-05-07 19:37 | 52.03634 | -33.83505 | 38317 ft | 454 kts | 266° |
| 2026-05-07 19:37 | 52.02245 | -33.93492 | 38317 ft | 453 kts | 266° |
| 2026-05-07 19:38 | 52.00849 | -34.03478 | 38317 ft | 453 kts | 266° |
| 2026-05-07 19:38 | 51.99445 | -34.13448 | 38317 ft | 453 kts | 266° |
| 2026-05-07 19:39 | 51.98032 | -34.23416 | 38316 ft | 453 kts | 266° |
| 2026-05-07 19:39 | 51.96614 | -34.33346 | 38313 ft | 451 kts | 266° |
| 2026-05-07 19:40 | 51.95201 | -34.43185 | 38316 ft | 451 kts | 266° |
| 2026-05-07 19:40 | 51.93771 | -34.53082 | 38320 ft | 451 kts | 265° |
| 2026-05-07 19:41 | 51.92333 | -34.62973 | 38311 ft | 451 kts | 265° |
| 2026-05-07 19:41 | 51.90885 | -34.72858 | 38326 ft | 451 kts | 265° |
| 2026-05-07 19:42 | 51.89430 | -34.82735 | 38322 ft | 451 kts | 265° |
| 2026-05-07 19:42 | 51.87965 | -34.92613 | 38323 ft | 451 kts | 265° |
| 2026-05-07 19:43 | 51.86492 | -35.02483 | 38319 ft | 451 kts | 265° |
| 2026-05-07 19:43 | 51.85010 | -35.12356 | 38323 ft | 451 kts | 265° |
| 2026-05-07 19:44 | 51.83528 | -35.22161 | 38324 ft | 451 kts | 265° |
| 2026-05-07 19:44 | 51.82029 | -35.32028 | 38326 ft | 452 kts | 264° |
| 2026-05-07 19:45 | 51.80520 | -35.41891 | 38323 ft | 452 kts | 264° |
| 2026-05-07 19:45 | 51.79002 | -35.51754 | 38323 ft | 452 kts | 264° |
| 2026-05-07 19:46 | 51.77476 | -35.61607 | 38322 ft | 452 kts | 264° |
| 2026-05-07 19:46 | 51.75941 | -35.71460 | 38275 ft | 452 kts | 264° |
| 2026-05-07 19:47 | 51.74399 | -35.81299 | 38323 ft | 452 kts | 263° |
| 2026-05-07 19:47 | 51.72849 | -35.91130 | 38321 ft | 453 kts | 263° |
| 2026-05-07 19:48 | 51.71289 | -36.00963 | 38320 ft | 453 kts | 263° |
| 2026-05-07 19:48 | 51.69730 | -36.10732 | 38319 ft | 453 kts | 263° |
| 2026-05-07 19:49 | 51.68153 | -36.20562 | 38300 ft | 453 kts | 263° |
| 2026-05-07 19:49 | 51.66566 | -36.30396 | 38320 ft | 454 kts | 263° |
| 2026-05-07 19:50 | 51.64967 | -36.40238 | 38319 ft | 454 kts | 263° |
| 2026-05-07 19:50 | 51.63361 | -36.50073 | 38320 ft | 454 kts | 263° |
| 2026-05-07 19:51 | 51.61746 | -36.59900 | 38319 ft | 454 kts | 263° |
| 2026-05-07 19:51 | 51.60122 | -36.69727 | 38319 ft | 454 kts | 262° |
| 2026-05-07 19:52 | 51.58500 | -36.79483 | 38319 ft | 454 kts | 262° |
| 2026-05-07 19:52 | 51.56860 | -36.89294 | 38320 ft | 454 kts | 262° |
| 2026-05-07 19:53 | 51.55211 | -36.99104 | 38320 ft | 455 kts | 262° |
| 2026-05-07 19:53 | 51.53554 | -37.08905 | 38319 ft | 455 kts | 262° |
| 2026-05-07 19:54 | 51.51889 | -37.18702 | 38300 ft | 455 kts | 262° |
| 2026-05-07 19:54 | 51.50217 | -37.28478 | 38317 ft | 453 kts | 262° |
| 2026-05-07 19:55 | 51.48540 | -37.38225 | 38313 ft | 453 kts | 261° |
| 2026-05-07 19:55 | 51.46859 | -37.47955 | 38320 ft | 453 kts | 261° |
| 2026-05-07 19:56 | 51.45167 | -37.57689 | 38316 ft | 453 kts | 261° |
| 2026-05-07 19:56 | 51.43754 | -37.65778 | 38307 ft | 453 kts | 261° |
| 2026-05-07 19:57 | 51.42048 | -37.75494 | 38312 ft | 452 kts | 261° |
| 2026-05-07 19:57 | 51.40055 | -37.86773 | 38320 ft | 452 kts | 261° |
| 2026-05-07 19:58 | 51.38623 | -37.94837 | 38311 ft | 452 kts | 261° |
| 2026-05-07 19:58 | 51.36894 | -38.04529 | 38315 ft | 453 kts | 261° |
| 2026-05-07 19:59 | 51.35157 | -38.14209 | 38315 ft | 453 kts | 260° |
| 2026-05-07 19:59 | 51.33409 | -38.23908 | 38299 ft | 454 kts | 260° |
| 2026-05-07 20:00 | 51.31648 | -38.33615 | 38308 ft | 454 kts | 260° |
| 2026-05-07 20:00 | 51.29880 | -38.43308 | 38309 ft | 454 kts | 260° |
| 2026-05-07 20:01 | 51.28103 | -38.53001 | 38307 ft | 454 kts | 260° |
| 2026-05-07 20:01 | 51.26331 | -38.62623 | 38303 ft | 455 kts | 259° |
| 2026-05-07 20:02 | 51.24536 | -38.72312 | 38303 ft | 454 kts | 259° |
| 2026-05-07 20:02 | 51.22735 | -38.81985 | 38303 ft | 454 kts | 259° |
| 2026-05-07 20:03 | 51.20925 | -38.91656 | 38303 ft | 454 kts | 259° |
| 2026-05-07 20:03 | 51.19109 | -39.01307 | 38303 ft | 454 kts | 259° |
| 2026-05-07 20:04 | 51.17287 | -39.10946 | 38306 ft | 455 kts | 258° |
| 2026-05-07 20:04 | 51.15451 | -39.20610 | 38305 ft | 456 kts | 258° |
| 2026-05-07 20:05 | 51.13604 | -39.30274 | 38300 ft | 456 kts | 258° |
| 2026-05-07 20:05 | 51.11760 | -39.39875 | 38300 ft | 456 kts | 258° |
| 2026-05-07 20:06 | 51.09898 | -39.49523 | 38294 ft | 456 kts | 258° |
| 2026-05-07 20:06 | 51.08027 | -39.59177 | 38293 ft | 458 kts | 257° |
| 2026-05-07 20:07 | 51.06139 | -39.68859 | 38295 ft | 459 kts | 257° |
| 2026-05-07 20:07 | 51.04241 | -39.78543 | 38295 ft | 459 kts | 257° |
| 2026-05-07 20:08 | 51.02334 | -39.88228 | 38293 ft | 459 kts | 257° |
| 2026-05-07 20:08 | 51.00441 | -39.97915 | 38258 ft | 457 kts | 259° |
| 2026-05-07 20:09 | 50.99179 | -40.07798 | 38278 ft | 456 kts | 264° |
| 2026-05-07 20:10 | 50.97621 | -40.22616 | 38277 ft | 456 kts | 264° |
| 2026-05-07 20:10 | 50.96589 | -40.32545 | 38275 ft | 456 kts | 264° |
| 2026-05-07 20:11 | 50.95539 | -40.42447 | 38289 ft | 456 kts | 264° |
| 2026-05-07 20:11 | 50.94473 | -40.52365 | 38279 ft | 456 kts | 264° |
| 2026-05-07 20:12 | 50.93394 | -40.62309 | 38274 ft | 458 kts | 263° |
| 2026-05-07 20:12 | 50.92305 | -40.72267 | 38281 ft | 458 kts | 263° |
| 2026-05-07 20:13 | 50.91207 | -40.82214 | 38278 ft | 458 kts | 263° |
| 2026-05-07 20:13 | 50.90101 | -40.92163 | 38281 ft | 458 kts | 263° |
| 2026-05-07 20:14 | 50.88994 | -41.02041 | 38266 ft | 458 kts | 263° |
| 2026-05-07 20:14 | 50.87873 | -41.11975 | 38279 ft | 458 kts | 262° |
| 2026-05-07 20:15 | 50.86742 | -41.21898 | 38277 ft | 458 kts | 262° |
| 2026-05-07 20:15 | 50.85603 | -41.31822 | 38276 ft | 458 kts | 262° |
| 2026-05-07 20:16 | 50.84457 | -41.41733 | 38277 ft | 458 kts | 262° |
| 2026-05-07 20:16 | 50.83302 | -41.51638 | 38276 ft | 458 kts | 262° |
| 2026-05-07 20:17 | 50.82138 | -41.61543 | 38274 ft | 458 kts | 262° |
| 2026-05-07 20:17 | 50.80967 | -41.71438 | 38274 ft | 458 kts | 262° |
| 2026-05-07 20:18 | 50.79787 | -41.81325 | 38273 ft | 458 kts | 262° |
| 2026-05-07 20:18 | 50.78607 | -41.91145 | 38276 ft | 458 kts | 262° |
| 2026-05-07 20:19 | 50.77409 | -42.01040 | 38275 ft | 458 kts | 262° |
| 2026-05-07 20:19 | 50.76203 | -42.10924 | 38271 ft | 459 kts | 261° |
| 2026-05-07 20:20 | 50.74986 | -42.20832 | 38270 ft | 459 kts | 261° |
| 2026-05-07 20:20 | 50.73758 | -42.30742 | 38272 ft | 460 kts | 261° |
| 2026-05-07 20:21 | 50.72531 | -42.40579 | 38270 ft | 460 kts | 261° |
| 2026-05-07 20:21 | 50.71288 | -42.50469 | 38271 ft | 459 kts | 261° |
| 2026-05-07 20:22 | 50.70037 | -42.60356 | 38270 ft | 460 kts | 261° |
| 2026-05-07 20:22 | 50.68775 | -42.70254 | 38270 ft | 460 kts | 261° |
| 2026-05-07 20:23 | 50.67505 | -42.80148 | 38270 ft | 460 kts | 261° |
| 2026-05-07 20:23 | 50.66225 | -42.90044 | 38271 ft | 460 kts | 261° |
| 2026-05-07 20:24 | 50.64939 | -42.99924 | 38267 ft | 459 kts | 260° |
| 2026-05-07 20:24 | 50.63646 | -43.09777 | 38266 ft | 459 kts | 260° |
| 2026-05-07 20:25 | 50.62346 | -43.19623 | 38268 ft | 459 kts | 260° |
| 2026-05-07 20:25 | 50.61044 | -43.29414 | 38268 ft | 460 kts | 260° |
| 2026-05-07 20:26 | 50.59725 | -43.39265 | 38265 ft | 460 kts | 260° |
| 2026-05-07 20:26 | 50.58398 | -43.49110 | 38265 ft | 460 kts | 260° |
| 2026-05-07 20:27 | 50.57065 | -43.58938 | 38260 ft | 460 kts | 259° |
| 2026-05-07 20:27 | 50.55719 | -43.68787 | 38268 ft | 460 kts | 259° |
| 2026-05-07 20:28 | 50.54367 | -43.78616 | 38265 ft | 460 kts | 259° |
| 2026-05-07 20:28 | 50.53005 | -43.88444 | 38264 ft | 460 kts | 259° |
| 2026-05-07 20:29 | 50.51636 | -43.98265 | 38264 ft | 459 kts | 259° |
| 2026-05-07 20:29 | 50.50266 | -44.08030 | 38258 ft | 457 kts | 259° |
| 2026-05-07 20:30 | 50.48888 | -44.17788 | 38266 ft | 457 kts | 259° |
| 2026-05-07 20:30 | 50.47511 | -44.27476 | 38265 ft | 457 kts | 259° |
| 2026-05-07 20:31 | 50.46117 | -44.37217 | 38269 ft | 457 kts | 259° |
| 2026-05-07 20:31 | 50.44715 | -44.46954 | 38270 ft | 457 kts | 259° |
| 2026-05-07 20:32 | 50.43305 | -44.56683 | 38265 ft | 457 kts | 258° |
| 2026-05-07 20:32 | 50.41885 | -44.66420 | 38264 ft | 457 kts | 258° |
| 2026-05-07 20:33 | 50.40457 | -44.76151 | 38266 ft | 458 kts | 258° |
| 2026-05-07 20:33 | 50.39022 | -44.85869 | 38264 ft | 457 kts | 258° |
| 2026-05-07 20:34 | 50.37592 | -44.95492 | 38261 ft | 455 kts | 258° |
| 2026-05-07 20:34 | 50.36149 | -45.05137 | 38264 ft | 454 kts | 258° |
| 2026-05-07 20:35 | 50.34702 | -45.14761 | 38259 ft | 454 kts | 257° |
| 2026-05-07 20:35 | 50.33245 | -45.24389 | 38261 ft | 454 kts | 257° |
| 2026-05-07 20:36 | 50.31781 | -45.33999 | 38260 ft | 454 kts | 257° |
| 2026-05-07 20:36 | 50.30309 | -45.43608 | 38260 ft | 454 kts | 257° |
| 2026-05-07 20:37 | 50.28829 | -45.53214 | 38256 ft | 454 kts | 257° |
| 2026-05-07 20:37 | 50.27342 | -45.62805 | 38250 ft | 454 kts | 257° |
| 2026-05-07 20:38 | 50.25847 | -45.72392 | 38253 ft | 454 kts | 257° |
| 2026-05-07 20:38 | 50.24344 | -45.81975 | 38261 ft | 453 kts | 256° |
| 2026-05-07 20:39 | 50.22840 | -45.91504 | 38259 ft | 450 kts | 256° |
| 2026-05-07 20:39 | 50.21335 | -46.00985 | 38247 ft | 450 kts | 256° |
| 2026-05-07 20:40 | 50.19832 | -46.10405 | 38245 ft | 450 kts | 256° |
| 2026-05-07 20:40 | 50.18311 | -46.19878 | 38249 ft | 450 kts | 256° |
| 2026-05-07 20:41 | 50.16783 | -46.29343 | 38249 ft | 450 kts | 256° |
| 2026-05-07 20:41 | 50.15249 | -46.38792 | 38246 ft | 450 kts | 256° |
| 2026-05-07 20:42 | 50.13704 | -46.48250 | 38245 ft | 450 kts | 256° |
| 2026-05-07 20:42 | 50.12154 | -46.57691 | 38246 ft | 449 kts | 256° |
| 2026-05-07 20:43 | 50.10598 | -46.67119 | 38246 ft | 449 kts | 255° |
| 2026-05-07 20:43 | 50.09035 | -46.76534 | 38238 ft | 448 kts | 255° |
| 2026-05-07 20:44 | 50.07480 | -46.85846 | 38235 ft | 446 kts | 255° |
| 2026-05-07 20:44 | 50.05911 | -46.95193 | 38238 ft | 446 kts | 255° |
| 2026-05-07 20:45 | 50.04334 | -47.04534 | 38236 ft | 446 kts | 254° |
| 2026-05-07 20:45 | 50.02750 | -47.13870 | 38232 ft | 447 kts | 254° |
| 2026-05-07 20:46 | 50.01157 | -47.23206 | 38233 ft | 447 kts | 254° |
| 2026-05-07 20:46 | 49.99555 | -47.32547 | 38230 ft | 447 kts | 254° |
| 2026-05-07 20:47 | 49.98221 | -47.40290 | 38234 ft | 447 kts | 254° |
| 2026-05-07 20:47 | 49.96605 | -47.49617 | 38223 ft | 447 kts | 254° |
| 2026-05-07 20:48 | 49.94985 | -47.58927 | 38221 ft | 447 kts | 253° |
| 2026-05-07 20:48 | 49.94167 | -47.63604 | 38422 ft | 447 kts | 253° |
| 2026-05-07 20:48 | 49.93356 | -47.68241 | 38817 ft | 443 kts | 252° |
| 2026-05-07 20:48 | 49.92547 | -47.72845 | 39103 ft | 441 kts | 252° |
| 2026-05-07 20:49 | 49.91739 | -47.77434 | 39283 ft | 441 kts | 252° |
| 2026-05-07 20:49 | 49.90926 | -47.82035 | 39427 ft | 441 kts | 252° |
| 2026-05-07 20:49 | 49.90112 | -47.86632 | 39580 ft | 441 kts | 252° |
| 2026-05-07 20:49 | 49.89306 | -47.91169 | 39724 ft | 441 kts | 252° |
| 2026-05-07 20:50 | 49.88487 | -47.95772 | 39885 ft | 442 kts | 252° |
| 2026-05-07 20:50 | 49.87669 | -48.00356 | 40013 ft | 442 kts | 253° |
| 2026-05-07 20:50 | 49.86848 | -48.04945 | 40144 ft | 442 kts | 252° |
| 2026-05-07 20:51 | 49.85192 | -48.14161 | 40211 ft | 446 kts | 252° |
| 2026-05-07 20:51 | 49.83521 | -48.23419 | 40200 ft | 446 kts | 252° |
| 2026-05-07 20:52 | 49.81844 | -48.32665 | 40204 ft | 446 kts | 252° |
| 2026-05-07 20:52 | 49.80159 | -48.41909 | 40201 ft | 446 kts | 252° |
| 2026-05-07 20:53 | 49.78480 | -48.51074 | 40201 ft | 446 kts | 252° |
| 2026-05-07 20:53 | 49.76782 | -48.60295 | 40195 ft | 446 kts | 251° |
| 2026-05-07 20:54 | 49.75074 | -48.69525 | 40191 ft | 446 kts | 251° |
| 2026-05-07 20:54 | 49.73361 | -48.78730 | 40192 ft | 446 kts | 251° |
| 2026-05-07 20:55 | 49.71640 | -48.87939 | 40186 ft | 446 kts | 251° |
| 2026-05-07 20:55 | 49.69911 | -48.97142 | 40184 ft | 446 kts | 251° |
| 2026-05-07 20:56 | 49.68176 | -49.06330 | 40181 ft | 446 kts | 251° |
| 2026-05-07 20:56 | 49.66432 | -49.15523 | 40181 ft | 446 kts | 251° |
| 2026-05-07 20:57 | 49.64690 | -49.24663 | 40167 ft | 446 kts | 251° |
| 2026-05-07 20:57 | 49.62931 | -49.33848 | 40167 ft | 446 kts | 250° |
| 2026-05-07 20:58 | 49.61165 | -49.43022 | 40187 ft | 446 kts | 250° |
| 2026-05-07 20:58 | 49.59396 | -49.52165 | 40164 ft | 444 kts | 250° |
| 2026-05-07 20:59 | 49.57626 | -49.61269 | 40154 ft | 443 kts | 250° |
| 2026-05-07 20:59 | 49.55851 | -49.70349 | 40154 ft | 443 kts | 250° |
| 2026-05-07 21:00 | 49.54071 | -49.79421 | 40152 ft | 442 kts | 250° |
| 2026-05-07 21:00 | 49.52293 | -49.88437 | 40154 ft | 442 kts | 250° |
| 2026-05-07 21:01 | 49.50500 | -49.97492 | 40141 ft | 442 kts | 250° |
| 2026-05-07 21:01 | 49.48607 | -50.06473 | 40141 ft | 440 kts | 248° |
| 2026-05-07 21:02 | 49.46439 | -50.15272 | 40138 ft | 440 kts | 246° |
| 2026-05-07 21:02 | 49.44246 | -50.24055 | 40138 ft | 440 kts | 247° |
| 2026-05-07 21:03 | 49.42087 | -50.32861 | 40132 ft | 440 kts | 247° |
| 2026-05-07 21:03 | 49.39950 | -50.41649 | 40130 ft | 438 kts | 247° |
| 2026-05-07 21:04 | 49.37821 | -50.50395 | 40127 ft | 437 kts | 247° |
| 2026-05-07 21:04 | 49.35683 | -50.59131 | 40126 ft | 437 kts | 247° |
| 2026-05-07 21:05 | 49.33540 | -50.67845 | 40123 ft | 437 kts | 247° |
| 2026-05-07 21:05 | 49.31404 | -50.76499 | 40116 ft | 437 kts | 247° |
| 2026-05-07 21:06 | 49.29247 | -50.85199 | 40111 ft | 437 kts | 247° |
| 2026-05-07 21:06 | 49.27080 | -50.93907 | 40113 ft | 438 kts | 247° |
| 2026-05-07 21:07 | 49.24907 | -51.02608 | 40111 ft | 438 kts | 247° |
| 2026-05-07 21:07 | 49.22726 | -51.11306 | 40110 ft | 438 kts | 247° |
| 2026-05-07 21:08 | 49.20539 | -51.19995 | 40106 ft | 438 kts | 247° |
| 2026-05-07 21:08 | 49.18344 | -51.28680 | 40104 ft | 438 kts | 247° |
| 2026-05-07 21:09 | 49.16143 | -51.37359 | 40099 ft | 438 kts | 247° |
| 2026-05-07 21:09 | 49.13933 | -51.46039 | 40100 ft | 438 kts | 247° |
| 2026-05-07 21:10 | 49.11718 | -51.54701 | 40085 ft | 438 kts | 247° |
| 2026-05-07 21:10 | 49.09511 | -51.63305 | 40086 ft | 438 kts | 247° |
| 2026-05-07 21:11 | 49.07282 | -51.71955 | 40079 ft | 438 kts | 247° |
| 2026-05-07 21:11 | 49.03921 | -51.84943 | 40080 ft | 439 kts | 247° |
| 2026-05-07 21:12 | 49.01669 | -51.93605 | 40075 ft | 439 kts | 247° |
| 2026-05-07 21:12 | 48.99920 | -52.02523 | 40075 ft | 441 kts | 259° |
| 2026-05-07 21:13 | 48.99093 | -52.11793 | 40067 ft | 442 kts | 261° |
| 2026-05-07 21:13 | 48.98427 | -52.21109 | 40057 ft | 443 kts | 262° |
| 2026-05-07 21:14 | 48.97767 | -52.30441 | 40044 ft | 444 kts | 262° |
| 2026-05-07 21:14 | 48.97085 | -52.39723 | 40044 ft | 444 kts | 262° |
| 2026-05-07 21:15 | 48.96380 | -52.49058 | 40029 ft | 444 kts | 262° |
| 2026-05-07 21:15 | 48.95664 | -52.58391 | 40022 ft | 444 kts | 261° |
| 2026-05-07 21:16 | 48.94942 | -52.67723 | 40009 ft | 444 kts | 261° |
| 2026-05-07 21:16 | 48.94213 | -52.77046 | 40004 ft | 444 kts | 262° |
| 2026-05-07 21:17 | 48.93479 | -52.86333 | 39998 ft | 446 kts | 261° |
| 2026-05-07 21:17 | 48.92731 | -52.95700 | 39987 ft | 446 kts | 261° |
| 2026-05-07 21:18 | 48.91977 | -53.05053 | 39994 ft | 446 kts | 261° |
| 2026-05-07 21:18 | 48.91215 | -53.14401 | 39990 ft | 446 kts | 261° |
| 2026-05-07 21:19 | 48.90446 | -53.23752 | 39984 ft | 446 kts | 261° |
| 2026-05-07 21:19 | 48.89669 | -53.33088 | 39989 ft | 446 kts | 261° |
| 2026-05-07 21:20 | 48.88886 | -53.42419 | 39981 ft | 444 kts | 261° |
| 2026-05-07 21:20 | 48.88099 | -53.51700 | 39984 ft | 441 kts | 260° |
| 2026-05-07 21:21 | 48.87307 | -53.60946 | 39980 ft | 441 kts | 260° |
| 2026-05-07 21:21 | 48.86513 | -53.70120 | 39974 ft | 441 kts | 260° |
| 2026-05-07 21:22 | 48.85708 | -53.79341 | 39975 ft | 440 kts | 260° |
| 2026-05-07 21:22 | 48.84895 | -53.88561 | 39974 ft | 440 kts | 260° |
| 2026-05-07 21:23 | 48.84076 | -53.97771 | 39970 ft | 440 kts | 260° |
| 2026-05-07 21:23 | 48.83255 | -54.06929 | 39990 ft | 436 kts | 260° |
| 2026-05-07 21:24 | 48.82430 | -54.16034 | 39971 ft | 435 kts | 259° |
| 2026-05-07 21:24 | 48.81598 | -54.25131 | 39969 ft | 435 kts | 259° |
| 2026-05-07 21:25 | 48.80758 | -54.34228 | 39969 ft | 435 kts | 259° |
| 2026-05-07 21:25 | 48.79918 | -54.43256 | 39921 ft | 435 kts | 259° |
| 2026-05-07 21:26 | 48.79066 | -54.52327 | 39918 ft | 435 kts | 259° |
| 2026-05-07 21:26 | 48.78207 | -54.61405 | 39920 ft | 434 kts | 259° |
| 2026-05-07 21:27 | 48.77345 | -54.70442 | 39925 ft | 433 kts | 259° |
| 2026-05-07 21:27 | 48.76473 | -54.79487 | 39918 ft | 434 kts | 259° |
| 2026-05-07 21:28 | 48.75594 | -54.88536 | 39924 ft | 434 kts | 259° |
| 2026-05-07 21:28 | 48.74709 | -54.97577 | 39918 ft | 434 kts | 259° |
| 2026-05-07 21:29 | 48.73816 | -55.06619 | 39916 ft | 434 kts | 259° |
| 2026-05-07 21:29 | 48.72917 | -55.15648 | 39909 ft | 433 kts | 258° |
| 2026-05-07 21:30 | 48.72020 | -55.24588 | 39903 ft | 431 kts | 258° |
| 2026-05-07 21:30 | 48.71113 | -55.33558 | 39908 ft | 431 kts | 258° |
| 2026-05-07 21:31 | 48.70197 | -55.42526 | 39887 ft | 431 kts | 258° |
| 2026-05-07 21:31 | 48.69275 | -55.51494 | 39885 ft | 431 kts | 258° |
| 2026-05-07 21:32 | 48.68346 | -55.60457 | 39877 ft | 431 kts | 258° |
| 2026-05-07 21:32 | 48.67409 | -55.69422 | 39872 ft | 431 kts | 258° |
| 2026-05-07 21:33 | 48.66468 | -55.78367 | 39871 ft | 430 kts | 258° |
| 2026-05-07 21:33 | 48.65530 | -55.87216 | 39864 ft | 428 kts | 258° |
| 2026-05-07 21:34 | 48.64579 | -55.96110 | 39852 ft | 429 kts | 257° |
| 2026-05-07 21:34 | 48.63619 | -56.05021 | 39865 ft | 429 kts | 257° |
| 2026-05-07 21:35 | 48.62652 | -56.13933 | 39848 ft | 429 kts | 257° |
| 2026-05-07 21:35 | 48.61678 | -56.22842 | 39844 ft | 429 kts | 257° |
| 2026-05-07 21:36 | 48.60698 | -56.31735 | 39839 ft | 429 kts | 257° |
| 2026-05-07 21:36 | 48.59879 | -56.39126 | 39835 ft | 428 kts | 257° |
| 2026-05-07 21:37 | 48.58890 | -56.47988 | 39841 ft | 428 kts | 257° |
| 2026-05-07 21:37 | 48.57894 | -56.56849 | 39843 ft | 429 kts | 257° |
| 2026-05-07 21:38 | 48.56884 | -56.65755 | 39834 ft | 431 kts | 257° |
| 2026-05-07 21:38 | 48.55866 | -56.74678 | 39835 ft | 431 kts | 257° |
| 2026-05-07 21:39 | 48.54843 | -56.83588 | 39830 ft | 431 kts | 257° |
| 2026-05-07 21:39 | 48.53811 | -56.92505 | 39832 ft | 431 kts | 257° |
| 2026-05-07 21:40 | 48.52775 | -57.01401 | 39847 ft | 431 kts | 257° |
| 2026-05-07 21:40 | 48.51737 | -57.10244 | 39844 ft | 431 kts | 256° |
| 2026-05-07 21:41 | 48.50685 | -57.19148 | 39853 ft | 432 kts | 256° |
| 2026-05-07 21:41 | 48.49623 | -57.28069 | 39856 ft | 432 kts | 256° |
| 2026-05-07 21:42 | 48.48555 | -57.36990 | 39839 ft | 432 kts | 256° |
| 2026-05-07 21:42 | 48.47481 | -57.45898 | 39844 ft | 432 kts | 256° |
| 2026-05-07 21:43 | 48.46398 | -57.54815 | 39840 ft | 431 kts | 256° |
| 2026-05-07 21:43 | 48.45319 | -57.63642 | 39832 ft | 431 kts | 256° |
| 2026-05-07 21:44 | 48.44226 | -57.72520 | 39832 ft | 431 kts | 256° |
| 2026-05-07 21:44 | 48.43126 | -57.81395 | 39822 ft | 431 kts | 256° |
| 2026-05-07 21:45 | 48.42021 | -57.90253 | 39802 ft | 431 kts | 256° |
| 2026-05-07 21:45 | 48.40907 | -57.99125 | 39801 ft | 431 kts | 256° |
| 2026-05-07 21:46 | 48.39788 | -58.07979 | 39802 ft | 430 kts | 256° |
| 2026-05-07 21:46 | 48.38676 | -58.16730 | 39797 ft | 427 kts | 256° |
| 2026-05-07 21:47 | 48.37555 | -58.25486 | 39792 ft | 426 kts | 256° |
| 2026-05-07 21:47 | 48.36425 | -58.34250 | 39796 ft | 426 kts | 255° |
| 2026-05-07 21:48 | 48.35294 | -58.42977 | 39774 ft | 424 kts | 255° |
| 2026-05-07 21:48 | 48.34161 | -58.51669 | 39773 ft | 424 kts | 255° |
| 2026-05-07 21:49 | 48.33019 | -58.60361 | 39749 ft | 424 kts | 255° |
| 2026-05-07 21:49 | 48.31873 | -58.69037 | 39743 ft | 422 kts | 255° |
| 2026-05-07 21:50 | 48.30726 | -58.77671 | 39741 ft | 421 kts | 255° |
| 2026-05-07 21:50 | 48.29580 | -58.86239 | 39724 ft | 421 kts | 255° |
| 2026-05-07 21:51 | 48.28422 | -58.94850 | 39760 ft | 421 kts | 254° |
| 2026-05-07 21:51 | 48.27254 | -59.03474 | 39724 ft | 423 kts | 254° |
| 2026-05-07 21:52 | 48.26185 | -59.11327 | 39705 ft | 423 kts | 254° |
| 2026-05-07 21:52 | 48.25189 | -59.18611 | 39705 ft | 423 kts | 254° |
| 2026-05-07 21:53 | 48.24106 | -59.26495 | 39701 ft | 422 kts | 254° |
| 2026-05-07 21:53 | 48.22920 | -59.35072 | 39688 ft | 422 kts | 254° |
| 2026-05-07 21:54 | 48.21738 | -59.43569 | 39688 ft | 421 kts | 254° |
| 2026-05-07 21:54 | 48.20662 | -59.51261 | 39689 ft | 421 kts | 254° |
| 2026-05-07 21:55 | 48.19584 | -59.58934 | 39684 ft | 422 kts | 253° |
| 2026-05-07 21:55 | 48.18363 | -59.67563 | 39679 ft | 424 kts | 253° |
| 2026-05-07 21:56 | 48.17133 | -59.76216 | 39680 ft | 424 kts | 253° |
| 2026-05-07 21:56 | 48.15899 | -59.84854 | 39680 ft | 424 kts | 253° |
| 2026-05-07 21:57 | 48.14658 | -59.93485 | 39682 ft | 424 kts | 253° |
| 2026-05-07 21:57 | 48.13411 | -60.02106 | 39683 ft | 423 kts | 253° |
| 2026-05-07 21:58 | 48.12159 | -60.10718 | 39683 ft | 423 kts | 253° |
| 2026-05-07 21:58 | 48.10898 | -60.19338 | 39679 ft | 426 kts | 253° |
| 2026-05-07 21:59 | 48.09620 | -60.28019 | 39680 ft | 428 kts | 253° |
| 2026-05-07 21:59 | 48.08336 | -60.36703 | 39677 ft | 428 kts | 253° |
| 2026-05-07 22:00 | 48.07047 | -60.45377 | 39683 ft | 427 kts | 253° |
| 2026-05-07 22:00 | 48.05760 | -60.53986 | 39669 ft | 427 kts | 253° |
| 2026-05-07 22:01 | 48.04458 | -60.62642 | 39681 ft | 427 kts | 253° |
| 2026-05-07 22:01 | 48.03147 | -60.71311 | 39703 ft | 427 kts | 253° |
| 2026-05-07 22:02 | 48.01829 | -60.79976 | 39664 ft | 428 kts | 253° |
| 2026-05-07 22:02 | 48.00505 | -60.88638 | 39664 ft | 428 kts | 253° |
| 2026-05-07 22:03 | 47.99175 | -60.97292 | 39658 ft | 427 kts | 253° |
| 2026-05-07 22:03 | 47.97842 | -61.05923 | 39659 ft | 426 kts | 253° |
| 2026-05-07 22:04 | 47.96503 | -61.14540 | 39656 ft | 426 kts | 253° |
| 2026-05-07 22:04 | 47.95166 | -61.23101 | 39656 ft | 426 kts | 253° |
| 2026-05-07 22:05 | 47.93813 | -61.31714 | 39680 ft | 426 kts | 253° |
| 2026-05-07 22:05 | 47.92453 | -61.40332 | 39660 ft | 428 kts | 253° |
| 2026-05-07 22:06 | 47.91080 | -61.48982 | 39662 ft | 429 kts | 253° |
| 2026-05-07 22:06 | 47.89698 | -61.57643 | 39658 ft | 429 kts | 253° |
| 2026-05-07 22:07 | 47.88312 | -61.66293 | 39656 ft | 429 kts | 253° |
| 2026-05-07 22:07 | 47.86929 | -61.74876 | 39663 ft | 429 kts | 253° |
| 2026-05-07 22:08 | 47.85530 | -61.83506 | 39661 ft | 429 kts | 252° |
| 2026-05-07 22:08 | 47.84125 | -61.92138 | 39672 ft | 429 kts | 253° |
| 2026-05-07 22:09 | 47.82704 | -62.00809 | 39664 ft | 432 kts | 252° |
| 2026-05-07 22:09 | 47.81275 | -62.09498 | 39667 ft | 431 kts | 253° |
| 2026-05-07 22:10 | 47.79848 | -62.18136 | 39672 ft | 429 kts | 253° |
| 2026-05-07 22:10 | 47.78416 | -62.26750 | 39672 ft | 429 kts | 252° |
| 2026-05-07 22:11 | 47.76976 | -62.35367 | 39672 ft | 429 kts | 252° |
| 2026-05-07 22:11 | 47.75531 | -62.43973 | 39672 ft | 429 kts | 252° |
| 2026-05-07 22:12 | 47.74078 | -62.52580 | 39674 ft | 431 kts | 252° |
| 2026-05-07 22:12 | 47.72611 | -62.61231 | 39672 ft | 432 kts | 252° |
| 2026-05-07 22:13 | 47.71145 | -62.69831 | 39675 ft | 432 kts | 252° |
| 2026-05-07 22:13 | 47.69665 | -62.78480 | 39675 ft | 432 kts | 252° |
| 2026-05-07 22:14 | 47.68177 | -62.87123 | 39672 ft | 432 kts | 252° |
| 2026-05-07 22:14 | 47.66683 | -62.95762 | 39672 ft | 432 kts | 252° |
| 2026-05-07 22:15 | 47.65181 | -63.04401 | 39711 ft | 432 kts | 252° |
| 2026-05-07 22:15 | 47.63669 | -63.13055 | 39667 ft | 435 kts | 252° |
| 2026-05-07 22:16 | 47.62147 | -63.21726 | 39669 ft | 434 kts | 252° |
| 2026-05-07 22:16 | 47.60630 | -63.30326 | 39669 ft | 433 kts | 252° |
| 2026-05-07 22:17 | 47.59101 | -63.38958 | 39669 ft | 433 kts | 252° |
| 2026-05-07 22:17 | 47.57566 | -63.47575 | 39669 ft | 433 kts | 252° |
| 2026-05-07 22:18 | 47.55247 | -63.60517 | 39669 ft | 433 kts | 252° |
| 2026-05-07 22:19 | 47.53697 | -63.69119 | 39662 ft | 432 kts | 252° |
| 2026-05-07 22:19 | 47.52145 | -63.77692 | 39670 ft | 430 kts | 252° |
| 2026-05-07 22:20 | 47.50591 | -63.86234 | 39669 ft | 429 kts | 252° |
| 2026-05-07 22:20 | 47.49042 | -63.94707 | 39669 ft | 429 kts | 252° |
| 2026-05-07 22:21 | 47.47479 | -64.03217 | 39669 ft | 429 kts | 252° |
| 2026-05-07 22:21 | 47.45908 | -64.11733 | 39669 ft | 429 kts | 252° |
| 2026-05-07 22:22 | 47.44332 | -64.20238 | 39675 ft | 430 kts | 251° |
| 2026-05-07 22:22 | 47.42742 | -64.28777 | 39666 ft | 431 kts | 252° |
| 2026-05-07 22:23 | 47.41146 | -64.37311 | 39669 ft | 431 kts | 252° |
| 2026-05-07 22:23 | 47.39547 | -64.45821 | 39664 ft | 430 kts | 251° |
| 2026-05-07 22:24 | 47.37940 | -64.54337 | 39664 ft | 430 kts | 251° |
| 2026-05-07 22:24 | 47.36337 | -64.62793 | 39664 ft | 430 kts | 251° |
| 2026-05-07 22:25 | 47.34716 | -64.71301 | 39665 ft | 430 kts | 251° |
| 2026-05-07 22:25 | 47.33090 | -64.79802 | 39663 ft | 431 kts | 251° |
| 2026-05-07 22:26 | 47.31460 | -64.88286 | 39661 ft | 430 kts | 251° |
| 2026-05-07 22:26 | 47.30099 | -64.95341 | 39661 ft | 430 kts | 251° |
| 2026-05-07 22:27 | 47.28459 | -65.03806 | 39661 ft | 430 kts | 251° |
| 2026-05-07 22:27 | 47.26813 | -65.12264 | 39661 ft | 430 kts | 251° |
| 2026-05-07 22:28 | 47.25160 | -65.20720 | 39662 ft | 430 kts | 251° |
| 2026-05-07 22:28 | 47.23501 | -65.29172 | 39698 ft | 430 kts | 251° |
| 2026-05-07 22:29 | 47.21836 | -65.37615 | 39659 ft | 430 kts | 251° |
| 2026-05-07 22:29 | 47.20161 | -65.46074 | 39660 ft | 431 kts | 251° |
| 2026-05-07 22:30 | 47.18480 | -65.54528 | 39663 ft | 431 kts | 251° |
| 2026-05-07 22:30 | 47.16805 | -65.62914 | 39662 ft | 431 kts | 251° |
| 2026-05-07 22:31 | 47.15112 | -65.71355 | 39666 ft | 430 kts | 251° |
| 2026-05-07 22:31 | 47.13414 | -65.79782 | 39666 ft | 431 kts | 251° |
| 2026-05-07 22:32 | 47.11711 | -65.88201 | 39670 ft | 429 kts | 251° |
| 2026-05-07 22:32 | 47.10004 | -65.96601 | 39667 ft | 429 kts | 251° |
| 2026-05-07 22:33 | 47.08291 | -66.04996 | 39667 ft | 429 kts | 251° |
| 2026-05-07 22:33 | 47.06571 | -66.13390 | 39667 ft | 429 kts | 251° |
| 2026-05-07 22:34 | 47.04844 | -66.21781 | 39665 ft | 429 kts | 251° |
| 2026-05-07 22:34 | 47.03114 | -66.30153 | 39666 ft | 429 kts | 251° |
| 2026-05-07 22:35 | 47.01390 | -66.38465 | 39660 ft | 428 kts | 251° |
| 2026-05-07 22:35 | 46.99654 | -66.46800 | 39671 ft | 428 kts | 251° |
| 2026-05-07 22:36 | 46.97910 | -66.55132 | 39674 ft | 428 kts | 251° |
| 2026-05-07 22:36 | 46.96161 | -66.63459 | 39677 ft | 428 kts | 251° |
| 2026-05-07 22:37 | 46.94406 | -66.71778 | 39679 ft | 428 kts | 251° |
| 2026-05-07 22:37 | 46.92645 | -66.80092 | 39676 ft | 428 kts | 251° |
| 2026-05-07 22:38 | 46.90878 | -66.88407 | 39675 ft | 428 kts | 251° |
| 2026-05-07 22:38 | 46.89109 | -66.96693 | 39696 ft | 427 kts | 250° |
| 2026-05-07 22:39 | 46.87326 | -67.05006 | 39688 ft | 430 kts | 250° |
| 2026-05-07 22:39 | 46.85643 | -67.13347 | 39689 ft | 431 kts | 252° |
| 2026-05-07 22:40 | 46.84044 | -67.21808 | 39690 ft | 431 kts | 252° |
| 2026-05-07 22:40 | 46.82433 | -67.30240 | 39689 ft | 431 kts | 252° |
| 2026-05-07 22:41 | 46.80796 | -67.38656 | 39690 ft | 431 kts | 252° |
| 2026-05-07 22:41 | 46.79149 | -67.47037 | 39706 ft | 428 kts | 252° |
| 2026-05-07 22:42 | 46.77505 | -67.55365 | 39692 ft | 427 kts | 252° |
| 2026-05-07 22:42 | 46.75853 | -67.63700 | 39692 ft | 428 kts | 251° |
| 2026-05-07 22:43 | 46.74194 | -67.72036 | 39702 ft | 428 kts | 251° |
| 2026-05-07 22:43 | 46.72542 | -67.80303 | 39706 ft | 428 kts | 251° |
| 2026-05-07 22:44 | 46.70873 | -67.88623 | 39712 ft | 428 kts | 251° |
| 2026-05-07 22:44 | 46.69197 | -67.96940 | 39710 ft | 428 kts | 251° |
| 2026-05-07 22:45 | 46.67514 | -68.05261 | 39711 ft | 430 kts | 251° |
| 2026-05-07 22:45 | 46.65811 | -68.13639 | 39711 ft | 432 kts | 251° |
| 2026-05-07 22:46 | 46.64097 | -68.22038 | 39711 ft | 433 kts | 251° |
| 2026-05-07 22:46 | 46.62379 | -68.30426 | 39707 ft | 432 kts | 251° |
| 2026-05-07 22:47 | 46.60654 | -68.38810 | 39705 ft | 432 kts | 251° |
| 2026-05-07 22:47 | 46.58925 | -68.47178 | 39682 ft | 432 kts | 251° |
| 2026-05-07 22:48 | 46.57202 | -68.55482 | 39710 ft | 431 kts | 251° |
| 2026-05-07 22:48 | 46.55462 | -68.63833 | 39705 ft | 432 kts | 251° |
| 2026-05-07 22:49 | 46.53717 | -68.72176 | 39717 ft | 432 kts | 251° |
| 2026-05-07 22:49 | 46.51964 | -68.80521 | 39717 ft | 432 kts | 251° |
| 2026-05-07 22:50 | 46.50204 | -68.88862 | 39718 ft | 432 kts | 251° |
| 2026-05-07 22:50 | 46.48441 | -68.97189 | 39728 ft | 432 kts | 251° |
| 2026-05-07 22:51 | 46.46672 | -69.05508 | 39724 ft | 431 kts | 251° |
| 2026-05-07 22:51 | 46.44901 | -69.13803 | 39741 ft | 430 kts | 251° |
| 2026-05-07 22:52 | 46.43124 | -69.22091 | 39740 ft | 430 kts | 251° |
| 2026-05-07 22:52 | 46.41354 | -69.30313 | 39738 ft | 430 kts | 251° |
| 2026-05-07 22:53 | 46.39567 | -69.38586 | 39741 ft | 430 kts | 251° |
| 2026-05-07 22:53 | 46.37774 | -69.46845 | 39740 ft | 430 kts | 251° |
| 2026-05-07 22:54 | 46.35975 | -69.55106 | 39754 ft | 430 kts | 251° |
| 2026-05-07 22:54 | 46.34163 | -69.63389 | 39742 ft | 432 kts | 251° |
| 2026-05-07 22:55 | 46.32393 | -69.71452 | 39741 ft | 433 kts | 251° |
| 2026-05-07 22:55 | 46.30564 | -69.79749 | 39742 ft | 432 kts | 251° |
| 2026-05-07 22:56 | 46.28742 | -69.87986 | 39740 ft | 432 kts | 251° |
| 2026-05-07 22:56 | 46.26904 | -69.96261 | 39746 ft | 432 kts | 250° |
| 2026-05-07 22:57 | 46.25058 | -70.04537 | 39747 ft | 432 kts | 250° |
| 2026-05-07 22:57 | 46.23208 | -70.12801 | 39747 ft | 432 kts | 250° |
| 2026-05-07 22:58 | 46.21354 | -70.21050 | 39756 ft | 431 kts | 250° |
| 2026-05-07 22:58 | 46.19497 | -70.29283 | 39757 ft | 431 kts | 250° |
| 2026-05-07 22:59 | 46.17631 | -70.37520 | 39765 ft | 431 kts | 250° |
| 2026-05-07 22:59 | 46.15762 | -70.45740 | 39763 ft | 431 kts | 250° |
| 2026-05-07 23:00 | 46.13885 | -70.53964 | 39764 ft | 431 kts | 250° |
| 2026-05-07 23:00 | 46.12013 | -70.62133 | 39768 ft | 433 kts | 250° |
| 2026-05-07 23:01 | 46.10118 | -70.70374 | 39769 ft | 433 kts | 250° |
| 2026-05-07 23:01 | 46.08216 | -70.78615 | 39768 ft | 434 kts | 250° |
| 2026-05-07 23:02 | 46.06307 | -70.86851 | 39773 ft | 434 kts | 250° |
| 2026-05-07 23:02 | 46.04391 | -70.95085 | 39774 ft | 434 kts | 250° |
| 2026-05-07 23:03 | 46.02468 | -71.03322 | 39782 ft | 434 kts | 250° |
| 2026-05-07 23:03 | 46.00539 | -71.11553 | 39766 ft | 436 kts | 250° |
| 2026-05-07 23:04 | 45.98592 | -71.19826 | 39789 ft | 436 kts | 250° |
| 2026-05-07 23:04 | 45.96652 | -71.28044 | 39795 ft | 436 kts | 250° |
| 2026-05-07 23:05 | 45.94896 | -71.35452 | 39802 ft | 436 kts | 250° |
| 2026-05-07 23:05 | 45.92935 | -71.43697 | 39804 ft | 436 kts | 250° |
| 2026-05-07 23:06 | 45.90968 | -71.51939 | 39803 ft | 436 kts | 250° |
| 2026-05-07 23:06 | 45.88993 | -71.60182 | 39814 ft | 438 kts | 250° |
| 2026-05-07 23:07 | 45.86999 | -71.68471 | 39809 ft | 440 kts | 250° |
| 2026-05-07 23:07 | 45.84997 | -71.76764 | 39807 ft | 440 kts | 250° |
| 2026-05-07 23:08 | 45.82986 | -71.85067 | 39814 ft | 440 kts | 250° |
| 2026-05-07 23:08 | 45.81050 | -71.93028 | 39812 ft | 440 kts | 249° |
| 2026-05-07 23:09 | 45.79079 | -72.01103 | 39808 ft | 440 kts | 249° |
| 2026-05-07 23:09 | 45.77051 | -72.09381 | 39805 ft | 441 kts | 250° |
| 2026-05-07 23:10 | 45.75010 | -72.17687 | 39806 ft | 442 kts | 250° |
| 2026-05-07 23:10 | 45.72966 | -72.25971 | 39818 ft | 441 kts | 250° |
| 2026-05-07 23:11 | 45.70916 | -72.34250 | 39816 ft | 441 kts | 249° |
| 2026-05-07 23:11 | 45.68861 | -72.42515 | 39820 ft | 441 kts | 249° |
| 2026-05-07 23:12 | 45.66812 | -72.50731 | 39820 ft | 441 kts | 249° |
| 2026-05-07 23:12 | 45.64730 | -72.59047 | 39824 ft | 442 kts | 250° |
| 2026-05-07 23:13 | 45.62668 | -72.67287 | 39826 ft | 444 kts | 250° |
| 2026-05-07 23:13 | 45.61399 | -72.75896 | 39823 ft | 445 kts | 262° |
| 2026-05-07 23:14 | 45.60849 | -72.84717 | 39826 ft | 445 kts | 263° |
| 2026-05-07 23:14 | 45.60411 | -72.93537 | 39828 ft | 446 kts | 263° |
| 2026-05-07 23:15 | 45.59965 | -73.02379 | 39833 ft | 446 kts | 264° |
| 2026-05-07 23:15 | 45.59576 | -73.09716 | 39831 ft | 447 kts | 263° |
| 2026-05-07 23:16 | 45.59092 | -73.18561 | 39828 ft | 447 kts | 263° |
| 2026-05-07 23:16 | 45.58598 | -73.27407 | 39824 ft | 447 kts | 263° |
| 2026-05-07 23:17 | 45.58017 | -73.37691 | 39823 ft | 447 kts | 263° |
| 2026-05-07 23:17 | 45.57593 | -73.45097 | 39826 ft | 447 kts | 263° |
| 2026-05-07 23:18 | 45.57080 | -73.53954 | 39824 ft | 448 kts | 263° |
| 2026-05-07 23:18 | 45.56560 | -73.62824 | 39827 ft | 448 kts | 263° |
| 2026-05-07 23:19 | 45.56032 | -73.71682 | 39823 ft | 448 kts | 263° |
| 2026-05-07 23:19 | 45.55502 | -73.80483 | 39822 ft | 448 kts | 263° |
| 2026-05-07 23:20 | 45.54961 | -73.89341 | 39824 ft | 448 kts | 263° |
| 2026-05-07 23:20 | 45.54413 | -73.98199 | 39832 ft | 448 kts | 263° |
| 2026-05-07 23:21 | 45.53858 | -74.07057 | 39836 ft | 448 kts | 263° |
| 2026-05-07 23:21 | 45.53297 | -74.15902 | 39834 ft | 448 kts | 263° |
| 2026-05-07 23:22 | 45.52729 | -74.24750 | 39848 ft | 448 kts | 263° |
| 2026-05-07 23:22 | 45.52152 | -74.33610 | 39834 ft | 449 kts | 263° |
| 2026-05-07 23:23 | 45.51568 | -74.42486 | 39836 ft | 449 kts | 263° |
| 2026-05-07 23:23 | 45.50631 | -74.51277 | 39822 ft | 448 kts | 258° |
| 2026-05-07 23:24 | 45.49448 | -74.59970 | 39840 ft | 446 kts | 257° |
| 2026-05-07 23:24 | 45.48224 | -74.68632 | 39848 ft | 446 kts | 257° |
| 2026-05-07 23:25 | 45.46994 | -74.77309 | 39836 ft | 448 kts | 257° |
| 2026-05-07 23:25 | 45.45765 | -74.85975 | 39837 ft | 449 kts | 257° |
| 2026-05-07 23:26 | 45.44526 | -74.94682 | 39840 ft | 449 kts | 257° |
| 2026-05-07 23:26 | 45.43280 | -75.03396 | 39840 ft | 449 kts | 257° |
| 2026-05-07 23:27 | 45.41444 | -75.16126 | 39842 ft | 450 kts | 257° |
| 2026-05-07 23:27 | 45.40164 | -75.24854 | 39835 ft | 451 kts | 257° |
| 2026-05-07 23:28 | 45.38881 | -75.33576 | 39840 ft | 450 kts | 257° |
| 2026-05-07 23:28 | 45.37596 | -75.42281 | 39841 ft | 450 kts | 257° |
| 2026-05-07 23:29 | 45.36303 | -75.50993 | 39833 ft | 450 kts | 257° |
| 2026-05-07 23:29 | 45.35011 | -75.59647 | 39834 ft | 450 kts | 257° |
| 2026-05-07 23:30 | 45.33703 | -75.68361 | 39831 ft | 451 kts | 257° |
| 2026-05-07 23:30 | 45.32387 | -75.77083 | 39833 ft | 451 kts | 257° |
| 2026-05-07 23:31 | 45.31063 | -75.85804 | 39837 ft | 451 kts | 257° |
| 2026-05-07 23:31 | 45.29732 | -75.94520 | 39834 ft | 451 kts | 257° |
| 2026-05-07 23:32 | 45.28395 | -76.03228 | 39860 ft | 451 kts | 257° |
| 2026-05-07 23:32 | 45.27054 | -76.11926 | 39859 ft | 451 kts | 257° |
| 2026-05-07 23:33 | 45.25637 | -76.20603 | 39856 ft | 451 kts | 252° |
| 2026-05-07 23:33 | 45.24421 | -76.24639 | 39863 ft | 451 kts | 240° |
| 2026-05-07 23:33 | 45.22556 | -76.28241 | 39707 ft | 458 kts | 229° |